Time;durP1;ratioP1;P1;durP2;ratioP2;P2;SDS_P1;SDS_P2;PMS_P1;PMS_P2;Temp;Humidity;BMP_temperature;BMP_pressure;BME280_temperature;BME280_humidity;BME280_pressure;Samples;Min_cycle;Max_cycle;Signal;HPM_P1;HPM_P2
2022/12/19 00:01:08;;;;;;;56.47;25.20;;;;;;;-0.08;100.00;101713.16;5033292;23;20628;-79
2022/12/19 00:03:35;;;;;;;58.45;26.98;;;;;;;-0.09;100.00;101719.78;5034837;23;20473;-80
2022/12/19 00:06:03;;;;;;;59.40;27.52;;;;;;;-0.07;100.00;101712.88;4984079;28;20168;-79
2022/12/19 00:08:29;;;;;;;51.15;25.73;;;;;;;-0.06;100.00;101703.50;4982156;28;20166;-79
2022/12/19 00:10:56;;;;;;;49.22;26.17;;;;;;;-0.03;100.00;101713.13;4983326;28;20042;-79
2022/12/19 00:13:22;;;;;;;58.13;27.48;;;;;;;-0.05;100.00;101709.84;4981906;28;20084;-79
2022/12/19 00:15:48;;;;;;;58.47;25.88;;;;;;;0.03;100.00;101723.00;4982798;28;20487;-78
2022/12/19 00:18:13;;;;;;;52.53;27.35;;;;;;;0.05;100.00;101726.28;4977767;28;20421;-78
2022/12/19 00:20:38;;;;;;;53.95;24.35;;;;;;;0.11;100.00;101727.06;4989205;28;20038;-78
2022/12/19 00:23:04;;;;;;;53.20;26.63;;;;;;;0.13;100.00;101720.16;4987035;28;20030;-78
2022/12/19 00:25:29;;;;;;;57.47;25.30;;;;;;;0.04;100.00;101712.78;4998780;28;20075;-79
2022/12/19 00:27:54;;;;;;;52.63;26.30;;;;;;;0.02;100.00;101720.50;4986723;28;20073;-78
2022/12/19 00:30:20;;;;;;;63.15;28.58;;;;;;;0.10;100.00;101723.47;4980709;28;20076;-78
2022/12/19 00:32:46;;;;;;;60.95;26.55;;;;;;;0.10;100.00;101728.97;4998218;28;20197;-78
2022/12/19 00:35:12;;;;;;;56.05;27.17;;;;;;;0.09;100.00;101727.34;4986400;28;20034;-78
2022/12/19 00:37:38;;;;;;;62.03;26.13;;;;;;;0.14;100.00;101730.06;4987971;28;20045;-79
2022/12/19 00:40:04;;;;;;;58.65;25.73;;;;;;;0.09;100.00;101716.34;4986683;28;20022;-77
2022/12/19 00:42:30;;;;;;;51.85;24.75;;;;;;;0.10;100.00;101706.97;4987408;28;20520;-78
2022/12/19 00:44:55;;;;;;;54.45;25.38;;;;;;;0.14;100.00;101713.53;4986597;28;20045;-79
2022/12/19 00:47:20;;;;;;;49.78;23.55;;;;;;;0.20;100.00;101701.38;4994853;28;20040;-78
2022/12/19 00:49:46;;;;;;;57.78;25.10;;;;;;;0.19;100.00;101680.47;4987683;28;20081;-78
2022/12/19 00:52:11;;;;;;;51.22;24.63;;;;;;;0.19;100.00;101677.72;4982120;28;20026;-78
2022/12/19 00:54:36;;;;;;;61.85;27.33;;;;;;;0.13;100.00;101665.09;4981426;28;20052;-78
2022/12/19 00:57:02;;;;;;;62.40;28.10;;;;;;;0.11;100.00;101647.25;4984474;28;20112;-78
2022/12/19 00:59:27;;;;;;;61.00;26.95;;;;;;;0.18;100.00;101637.53;4983243;28;20081;-79
2022/12/19 01:01:53;;;;;;;57.28;26.55;;;;;;;0.20;100.00;101635.31;4989995;28;20054;-77
2022/12/19 01:04:18;;;;;;;62.38;28.95;;;;;;;0.10;100.00;101646.41;4987532;28;20037;-78
2022/12/19 01:06:43;;;;;;;54.70;26.33;;;;;;;0.20;100.00;101645.50;4987289;28;20042;-78
2022/12/19 01:09:13;;;;;;;53.50;26.63;;;;;;;0.23;100.00;101627.56;4983781;28;20463;-78
2022/12/19 01:14:22;;;;;;;55.47;25.45;;;;;;;0.23;100.00;101644.09;4986748;28;20449;-78
2022/12/19 01:16:48;;;;;;;58.72;26.65;;;;;;;0.27;100.00;101634.16;4980156;28;20030;-78
2022/12/19 01:19:13;;;;;;;57.58;26.63;;;;;;;0.28;100.00;101644.88;4989901;28;20030;-78
2022/12/19 01:21:38;;;;;;;52.05;24.95;;;;;;;0.30;100.00;101633.59;5006347;28;20026;-77
2022/12/19 01:24:04;;;;;;;61.85;27.80;;;;;;;0.26;100.00;101621.50;4988662;28;20391;-78
2022/12/19 01:26:30;;;;;;;65.47;28.23;;;;;;;0.34;100.00;101615.38;4987136;28;20034;-78
2022/12/19 01:28:55;;;;;;;64.78;28.40;;;;;;;0.30;100.00;101600.53;4986969;28;20483;-77
2022/12/19 01:31:21;;;;;;;57.70;27.67;;;;;;;0.27;100.00;101598.34;4986331;28;20026;-77
2022/12/19 01:33:46;;;;;;;62.88;29.10;;;;;;;0.31;100.00;101618.69;4992457;28;20037;-78
2022/12/19 01:36:11;;;;;;;64.63;28.23;;;;;;;0.24;100.00;101609.97;4993480;28;20383;-77
2022/12/19 01:38:37;;;;;;;58.53;31.50;;;;;;;0.31;100.00;101621.44;4990642;28;20517;-77
2022/12/19 01:41:03;;;;;;;58.40;28.27;;;;;;;0.38;100.00;101619.16;4988570;28;20474;-77
2022/12/19 01:43:32;;;;;;;61.67;27.90;;;;;;;0.30;100.00;101626.13;4985850;28;20034;-78
2022/12/19 01:46:03;;;;;;;60.60;27.10;;;;;;;0.30;100.00;101630.81;4990102;28;20438;-77
2022/12/19 01:48:37;;;;;;;69.40;28.63;;;;;;;0.37;100.00;101612.84;4988451;28;20190;-77
2022/12/19 01:51:08;;;;;;;61.85;28.67;;;;;;;0.30;100.00;101617.06;4987998;28;20126;-78
2022/12/19 01:53:39;;;;;;;60.40;27.80;;;;;;;0.34;100.00;101621.69;5003135;28;20084;-77
2022/12/19 01:56:08;;;;;;;62.20;28.80;;;;;;;0.29;100.00;101607.94;4987356;28;20092;-77
2022/12/19 01:58:34;;;;;;;62.90;29.90;;;;;;;0.31;100.00;101597.47;4983068;28;20054;-77
2022/12/19 02:00:59;;;;;;;61.08;29.58;;;;;;;0.33;100.00;101589.75;4985491;28;20279;-78
2022/12/19 02:03:28;;;;;;;60.22;28.77;;;;;;;0.32;100.00;101595.56;4983841;28;20058;-78
2022/12/19 02:05:54;;;;;;;59.67;27.80;;;;;;;0.38;100.00;101594.38;4989116;28;20038;-78
2022/12/19 02:08:22;;;;;;;66.10;29.05;;;;;;;0.40;100.00;101595.75;4988957;28;20069;-77
2022/12/19 02:10:47;;;;;;;64.47;28.55;;;;;;;0.32;100.00;101584.53;5004805;28;20041;-77
2022/12/19 02:13:13;;;;;;;62.42;29.95;;;;;;;0.37;100.00;101587.22;5002392;28;20383;-77
2022/12/19 02:16:05;;;;;;;64.95;29.48;;;;;;;0.35;100.00;101565.47;4988010;28;20528;-77
2022/12/19 02:18:43;;;;;;;68.68;30.08;;;;;;;0.37;100.00;101574.28;4986687;28;20029;-79
2022/12/19 02:21:19;;;;;;;62.65;29.00;;;;;;;0.39;100.00;101587.75;5002128;28;20034;-77
2022/12/19 02:24:03;;;;;;;58.58;29.50;;;;;;;0.43;100.00;101583.31;4991253;28;20034;-78
2022/12/19 02:26:55;;;;;;;65.28;28.80;;;;;;;0.51;100.00;101565.34;5004842;28;20096;-77
2022/12/19 02:29:53;;;;;;;65.25;29.63;;;;;;;0.53;100.00;101561.16;4978179;28;20054;-78
2022/12/19 02:32:24;;;;;;;63.10;29.13;;;;;;;0.56;100.00;101560.56;4981187;28;20069;-78
2022/12/19 02:34:58;;;;;;;65.85;28.92;;;;;;;0.55;100.00;101564.44;4983538;28;21689;-78
2022/12/19 02:37:28;;;;;;;66.97;29.55;;;;;;;0.60;100.00;101564.38;4983226;28;20038;-77
2022/12/19 02:40:06;;;;;;;64.45;29.67;;;;;;;0.65;100.00;101548.91;5001620;28;20030;-77
2022/12/19 02:42:37;;;;;;;63.53;28.10;;;;;;;0.65;100.00;101557.97;4983112;28;20518;-77
2022/12/19 02:45:06;;;;;;;63.85;29.80;;;;;;;0.76;100.00;101559.50;4982913;28;20510;-77
2022/12/19 02:47:33;;;;;;;68.18;31.85;;;;;;;0.77;100.00;101560.31;4984223;28;20517;-78
2022/12/19 02:49:58;;;;;;;73.22;33.30;;;;;;;0.78;100.00;101548.19;4982381;28;20151;-78
2022/12/19 02:52:23;;;;;;;69.85;31.45;;;;;;;0.81;100.00;101553.13;4983152;28;20470;-78
2022/12/19 02:54:56;;;;;;;61.35;30.63;;;;;;;0.84;100.00;101551.69;4994306;28;20070;-78
2022/12/19 02:57:24;;;;;;;62.17;29.85;;;;;;;0.84;100.00;101543.44;4981393;28;20084;-78
2022/12/19 03:00:06;;;;;;;67.60;30.40;;;;;;;0.94;100.00;101533.09;4993737;28;20038;-78
2022/12/19 03:02:53;;;;;;;63.17;31.35;;;;;;;0.92;100.00;101529.81;4982089;28;20072;-79
2022/12/19 03:05:21;;;;;;;66.35;30.50;;;;;;;0.97;100.00;101524.22;4981901;28;20034;-79
2022/12/19 03:07:58;;;;;;;66.20;32.22;;;;;;;1.00;100.00;101512.59;4982592;28;20571;-77
2022/12/19 03:10:29;;;;;;;70.07;33.10;;;;;;;1.00;100.00;101520.88;4996328;28;20633;-78
2022/12/19 03:13:18;;;;;;;70.50;32.67;;;;;;;0.96;100.00;101517.06;4998674;28;20121;-77
2022/12/19 03:15:44;;;;;;;70.35;33.72;;;;;;;0.98;100.00;101522.28;4985806;28;20096;-78
2022/12/19 03:18:10;;;;;;;63.92;30.92;;;;;;;1.00;100.00;101511.78;4979301;28;20389;-79
2022/12/19 03:20:46;;;;;;;69.65;28.95;;;;;;;1.12;100.00;101514.09;4984169;28;20038;-78
2022/12/19 03:23:12;;;;;;;71.63;30.65;;;;;;;1.06;100.00;101513.34;4977721;28;20520;-77
2022/12/19 03:25:42;;;;;;;65.82;31.48;;;;;;;1.08;100.00;101511.13;4985168;28;20053;-77
2022/12/19 03:28:12;;;;;;;68.50;31.75;;;;;;;1.09;100.00;101507.22;4982660;28;20107;-78
2022/12/19 03:30:41;;;;;;;68.85;31.15;;;;;;;1.08;100.00;101494.56;4978578;28;20490;-77
2022/12/19 03:33:10;;;;;;;67.22;34.78;;;;;;;1.15;100.00;101496.94;4978589;28;20030;-78
2022/12/19 03:35:38;;;;;;;70.40;33.42;;;;;;;1.11;100.00;101498.66;4981773;28;20037;-78
2022/12/19 03:38:05;;;;;;;68.00;34.13;;;;;;;1.13;100.00;101482.66;4978250;28;20073;-77
2022/12/19 03:40:34;;;;;;;71.20;31.33;;;;;;;1.21;100.00;101476.47;4983940;28;20033;-77
2022/12/19 03:43:08;;;;;;;71.15;30.75;;;;;;;1.16;100.00;101473.75;4984698;28;20473;-78
2022/12/19 03:45:54;;;;;;;69.55;32.50;;;;;;;1.19;100.00;101490.53;4983391;28;20068;-80
2022/12/19 03:48:41;;;;;;;74.32;32.45;;;;;;;1.20;100.00;101485.84;4981912;28;20121;-78
2022/12/19 03:51:34;;;;;;;59.13;28.05;;;;;;;1.21;100.00;101474.50;4986175;28;20030;-79
2022/12/19 03:54:23;;;;;;;69.82;30.40;;;;;;;1.23;100.00;101479.72;5003166;28;20483;-78
2022/12/19 03:57:04;;;;;;;73.93;33.35;;;;;;;1.26;100.00;101481.88;4986993;28;20032;-78
2022/12/19 03:59:41;;;;;;;65.55;29.52;;;;;;;1.27;100.00;101483.53;4982600;28;20030;-78
2022/12/19 04:02:08;;;;;;;75.53;30.90;;;;;;;1.34;100.00;101474.88;4987271;28;20055;-79
2022/12/19 04:04:38;;;;;;;71.30;31.85;;;;;;;1.34;100.00;101469.34;4977479;28;20336;-79
2022/12/19 04:07:06;;;;;;;79.28;33.95;;;;;;;1.35;100.00;101460.78;4985587;28;20053;-78
2022/12/19 04:09:32;;;;;;;74.72;34.30;;;;;;;1.30;100.00;101452.56;4978267;28;20026;-79
2022/12/19 04:12:04;;;;;;;70.90;33.90;;;;;;;1.30;100.00;101452.56;4986016;28;20027;-78
2022/12/19 04:14:32;;;;;;;70.85;31.73;;;;;;;1.39;100.00;101450.78;5001534;28;20541;-78
2022/12/19 04:17:11;;;;;;;67.43;31.52;;;;;;;1.38;100.00;101443.63;4985382;28;20466;-78
2022/12/19 04:19:44;;;;;;;66.53;29.52;;;;;;;1.42;100.00;101443.84;4984064;28;20034;-79
2022/12/19 04:22:20;;;;;;;;;;;;;;;1.38;100.00;101438.09;4986423;28;20034;-80
2022/12/19 04:24:47;;;;;;;68.32;31.85;;;;;;;1.53;100.00;101433.44;4986369;28;19918;-78
2022/12/19 04:27:13;;;;;;;66.32;29.63;;;;;;;1.47;100.00;101429.13;4985558;28;20565;-79
2022/12/19 04:29:39;;;;;;;67.47;30.88;;;;;;;1.45;100.00;101445.97;4980708;28;20044;-79
2022/12/19 04:32:07;;;;;;;63.95;31.13;;;;;;;1.55;100.00;101445.00;5003630;28;20042;-78
2022/12/19 04:34:32;;;;;;;76.68;34.33;;;;;;;1.57;100.00;101429.78;4984376;28;20034;-78
2022/12/19 04:36:58;;;;;;;65.00;29.25;;;;;;;1.54;100.00;101435.06;4986189;28;20028;-78
2022/12/19 04:39:23;;;;;;;62.35;30.98;;;;;;;1.61;100.00;101425.28;4983399;28;20044;-80
2022/12/19 04:41:49;;;;;;;67.63;30.52;;;;;;;1.58;100.00;101425.91;4985973;28;20030;-79
2022/12/19 04:44:15;;;;;;;59.35;29.15;;;;;;;1.58;100.00;101427.81;4986417;28;20026;-79
2022/12/19 04:46:40;;;;;;;75.13;32.10;;;;;;;1.61;100.00;101402.41;4984665;28;20065;-79
2022/12/19 04:49:05;;;;;;;71.30;30.42;;;;;;;1.64;100.00;101410.06;4978851;28;20026;-77
2022/12/19 04:51:31;;;;;;;57.97;29.30;;;;;;;1.62;100.00;101407.63;4983202;28;20104;-80
2022/12/19 04:53:56;;;;;;;64.45;29.77;;;;;;;1.59;100.00;101415.69;4987372;28;20030;-78
2022/12/19 04:56:22;;;;;;;65.70;29.90;;;;;;;1.67;100.00;101423.25;4985581;28;20031;-78
2022/12/19 04:58:47;;;;;;;70.05;30.33;;;;;;;1.74;100.00;101423.66;4983947;28;20172;-78
2022/12/19 05:01:13;;;;;;;69.82;31.60;;;;;;;1.70;100.00;101405.25;4988518;28;20087;-79
2022/12/19 05:03:39;;;;;;;66.68;29.55;;;;;;;1.72;100.00;101416.81;4996665;28;20053;-78
2022/12/19 05:06:13;;;;;;;58.38;28.65;;;;;;;1.72;100.00;101400.25;4980665;28;20036;-78
2022/12/19 05:08:40;;;;;;;63.90;29.77;;;;;;;1.76;100.00;101396.56;4985200;28;20068;-78
2022/12/19 05:11:07;;;;;;;57.92;28.70;;;;;;;1.82;100.00;101391.78;4986147;28;20034;-78
2022/12/19 05:13:33;;;;;;;59.92;28.05;;;;;;;1.78;100.00;101396.28;4997377;28;20096;-78
2022/12/19 05:16:05;;;;;;;63.78;27.38;;;;;;;1.85;100.00;101384.84;4979335;28;20030;-78
2022/12/19 05:18:31;;;;;;;56.63;27.33;;;;;;;1.88;100.00;101389.72;4984284;28;20049;-78
2022/12/19 05:20:57;;;;;;;61.10;31.02;;;;;;;1.90;100.00;101382.78;4987506;28;20320;-77
2022/12/19 05:23:22;;;;;;;63.08;29.48;;;;;;;1.92;100.00;101388.81;4980639;28;20040;-79
2022/12/19 05:25:48;;;;;;;65.75;29.33;;;;;;;1.98;100.00;101384.84;4985691;28;20049;-79
2022/12/19 05:28:14;;;;;;;58.40;27.38;;;;;;;1.95;100.00;101390.97;4982328;28;20113;-79
2022/12/19 05:30:41;;;;;;;57.00;28.10;;;;;;;1.97;100.00;101382.38;4981572;28;21424;-79
2022/12/19 05:33:06;;;;;;;59.50;26.63;;;;;;;1.99;100.00;101380.94;4982487;28;20085;-77
2022/12/19 05:35:32;;;;;;;57.88;26.10;;;;;;;2.00;100.00;101374.31;4982994;28;20038;-78
2022/12/19 05:37:58;;;;;;;56.30;27.05;;;;;;;2.06;100.00;101358.44;4996371;28;20120;-78
2022/12/19 05:40:23;;;;;;;59.80;25.17;;;;;;;2.11;100.00;101361.09;4983720;28;20121;-78
2022/12/19 05:42:49;;;;;;;54.65;26.27;;;;;;;2.16;100.00;101365.69;4983793;28;20030;-78
2022/12/19 05:45:14;;;;;;;55.72;26.35;;;;;;;2.22;100.00;101376.31;4980390;28;20026;-78
2022/12/19 05:47:40;;;;;;;59.13;25.75;;;;;;;2.17;100.00;101361.78;4981044;28;20030;-79
2022/12/19 05:50:06;;;;;;;53.10;27.98;;;;;;;2.22;100.00;101367.22;4982039;28;20077;-78
2022/12/19 05:52:31;;;;;;;53.75;26.35;;;;;;;2.29;100.00;101370.38;4976585;28;20089;-78
2022/12/19 05:54:56;;;;;;;54.85;25.08;;;;;;;2.19;100.00;101373.34;4992782;28;20556;-78
2022/12/19 05:57:22;;;;;;;52.92;24.02;;;;;;;2.31;100.00;101373.63;4980374;28;20035;-78
2022/12/19 05:59:47;;;;;;;52.08;25.95;;;;;;;2.36;100.00;101378.22;4984787;28;20047;-78
2022/12/19 06:02:12;;;;;;;49.72;24.42;;;;;;;2.39;100.00;101377.63;4964167;28;20054;-79
2022/12/19 06:04:38;;;;;;;47.92;24.15;;;;;;;2.32;100.00;101371.69;4979187;28;20022;-78
2022/12/19 06:07:04;;;;;;;51.63;25.83;;;;;;;2.39;100.00;101366.56;4987306;28;20030;-78
2022/12/19 06:09:29;;;;;;;56.67;26.15;;;;;;;2.46;100.00;101372.47;4984990;28;20367;-78
2022/12/19 06:11:55;;;;;;;55.10;25.40;;;;;;;2.35;100.00;101376.59;4987037;28;20062;-79
2022/12/19 06:14:20;;;;;;;55.47;24.83;;;;;;;2.51;100.00;101375.16;4983348;28;20483;-79
2022/12/19 06:16:45;;;;;;;54.70;25.10;;;;;;;2.43;100.00;101379.44;4982482;28;20112;-79
2022/12/19 06:19:11;;;;;;;41.95;22.95;;;;;;;2.48;100.00;101369.41;4987695;28;20037;-78
2022/12/19 06:21:36;;;;;;;45.90;22.90;;;;;;;2.34;100.00;101369.44;4983852;28;20105;-77
2022/12/19 06:24:02;;;;;;;46.95;22.60;;;;;;;2.55;100.00;101367.88;4984938;28;20113;-78
2022/12/19 06:26:27;;;;;;;50.72;25.23;;;;;;;2.58;100.00;101372.75;4984137;28;20117;-79
2022/12/19 06:28:54;;;;;;;55.35;25.23;;;;;;;2.72;100.00;101380.19;4985164;28;20034;-78
2022/12/19 06:31:23;;;;;;;49.67;23.92;;;;;;;2.53;100.00;101363.75;4983723;28;20069;-78
2022/12/19 06:33:49;;;;;;;45.83;23.70;;;;;;;2.59;100.00;101357.00;4983768;28;20516;-78
2022/12/19 06:36:17;;;;;;;52.60;24.77;;;;;;;2.80;100.00;101355.41;4984383;28;20042;-79
2022/12/19 06:38:43;;;;;;;48.72;25.10;;;;;;;2.80;100.00;101360.09;4983287;28;20390;-79
2022/12/19 06:44:02;;;;;;;49.67;24.20;;;;;;;2.87;100.00;101349.44;4976561;28;20061;-79
2022/12/19 06:46:27;;;;;;;48.78;24.08;;;;;;;2.87;100.00;101346.66;4979076;28;20034;-80
2022/12/19 06:48:53;;;;;;;46.22;22.98;;;;;;;2.88;100.00;101351.03;4982335;28;20081;-79
2022/12/19 06:51:19;;;;;;;47.05;23.60;;;;;;;2.86;100.00;101345.00;4977032;28;20034;-79
2022/12/19 06:53:44;;;;;;;42.08;21.98;;;;;;;2.98;100.00;101348.03;4976353;28;20644;-80
2022/12/19 06:56:12;;;;;;;50.33;23.88;;;;;;;2.92;100.00;101329.94;4977923;28;20438;-78
2022/12/19 06:58:37;;;;;;;51.30;24.95;;;;;;;3.08;100.00;101352.50;4978624;28;20031;-78
2022/12/19 07:01:03;;;;;;;41.08;21.90;;;;;;;2.98;100.00;101336.97;4982104;28;20041;-78
2022/12/19 07:03:35;;;;;;;43.92;23.15;;;;;;;3.02;100.00;101337.16;4986558;28;20046;-79
2022/12/19 07:06:01;;;;;;;47.33;22.30;;;;;;;3.09;100.00;101343.06;4979263;28;20049;-79
2022/12/19 07:08:26;;;;;;;46.80;21.48;;;;;;;3.04;100.00;101340.44;4973067;28;20727;-80
2022/12/19 07:10:52;;;;;;;42.10;22.00;;;;;;;3.16;100.00;101337.91;4986268;28;20037;-80
2022/12/19 07:13:18;;;;;;;43.03;23.08;;;;;;;3.97;100.00;101338.75;4992376;28;20030;-79
2022/12/19 07:15:43;;;;;;;53.40;25.63;;;;;;;4.18;100.00;101342.53;4976366;28;20045;-77
2022/12/19 07:18:09;;;;;;;43.67;19.92;;;;;;;3.73;100.00;101352.97;4979981;28;20038;-78
2022/12/19 07:20:37;;;;;;;38.17;19.05;;;;;;;3.63;100.00;101349.38;4981649;28;20026;-77
2022/12/19 07:23:04;;;;;;;32.88;17.88;;;;;;;3.56;100.00;101353.72;4980567;28;20038;-77
2022/12/19 07:25:30;;;;;;;25.88;16.38;;;;;;;3.44;100.00;101346.84;4975932;28;20057;-77
2022/12/19 07:27:56;;;;;;;35.28;20.50;;;;;;;3.53;100.00;101335.81;4981194;28;20061;-77
2022/12/19 07:30:21;;;;;;;37.75;20.33;;;;;;;3.45;100.00;101348.47;4978842;28;20474;-76
2022/12/19 07:32:46;;;;;;;45.97;22.90;;;;;;;4.22;100.00;101339.94;4980478;28;20397;-77
2022/12/19 07:35:12;;;;;;;31.52;19.10;;;;;;;3.68;100.00;101342.88;4977684;28;20604;-75
2022/12/19 07:37:37;;;;;;;32.30;18.10;;;;;;;3.51;100.00;101351.91;4984011;28;20014;-77
2022/12/19 07:40:03;;;;;;;32.58;17.73;;;;;;;3.61;100.00;101342.53;4998775;28;20089;-77
2022/12/19 07:42:29;;;;;;;36.13;19.42;;;;;;;3.63;100.00;101351.31;4982063;28;20032;-79
2022/12/19 07:44:55;;;;;;;37.13;20.20;;;;;;;3.64;100.00;101362.06;4982315;28;20712;-79
2022/12/19 07:47:20;;;;;;;28.00;16.65;;;;;;;3.52;100.00;101363.78;4977040;28;20026;-78
2022/12/19 07:49:45;;;;;;;33.72;18.77;;;;;;;3.61;100.00;101367.44;4981615;28;20026;-78
2022/12/19 07:52:11;;;;;;;34.30;17.25;;;;;;;3.56;100.00;101359.25;4978149;28;20027;-77
2022/12/19 07:54:36;;;;;;;31.90;17.77;;;;;;;3.63;100.00;101365.16;4981344;28;20112;-77
2022/12/19 07:57:02;;;;;;;34.42;18.30;;;;;;;3.58;100.00;101354.22;4983198;28;20524;-77
2022/12/19 07:59:27;;;;;;;38.47;19.88;;;;;;;3.60;100.00;101366.59;4983268;28;20093;-77
2022/12/19 08:01:53;;;;;;;36.92;18.42;;;;;;;3.67;100.00;101353.13;4967739;28;20055;-78
2022/12/19 08:04:18;;;;;;;32.95;19.25;;;;;;;3.75;100.00;101357.06;4981046;28;20027;-78
2022/12/19 08:06:45;;;;;;;39.28;19.08;;;;;;;3.70;100.00;101359.97;4984631;28;20033;-78
2022/12/19 08:09:11;;;;;;;31.77;20.10;;;;;;;3.81;100.00;101361.31;4982016;28;20553;-78
2022/12/19 08:11:36;;;;;;;41.97;20.10;;;;;;;3.80;100.00;101353.34;4982976;28;20037;-78
2022/12/19 08:14:02;;;;;;;36.30;20.25;;;;;;;3.77;100.00;101360.31;4979273;28;20026;-78
2022/12/19 08:16:27;;;;;;;34.78;18.40;;;;;;;3.73;100.00;101359.34;4984210;28;20026;-78
2022/12/19 08:18:54;;;;;;;32.70;18.42;;;;;;;3.90;100.00;101358.59;4974123;28;20106;-79
2022/12/19 08:21:20;;;;;;;31.42;18.13;;;;;;;3.93;100.00;101363.47;4977167;28;20533;-78
2022/12/19 08:23:46;;;;;;;36.65;20.17;;;;;;;4.00;100.00;101358.28;4981158;28;20682;-79
2022/12/19 08:26:14;;;;;;;44.08;20.38;;;;;;;4.04;100.00;101358.47;4994204;28;20033;-78
2022/12/19 08:28:39;;;;;;;42.05;21.55;;;;;;;4.17;100.00;101365.81;4972961;28;20520;-78
2022/12/19 08:31:07;;;;;;;47.40;21.95;;;;;;;4.14;100.00;101369.25;4980154;28;20121;-79
2022/12/19 08:33:33;;;;;;;50.53;23.48;;;;;;;4.18;100.00;101359.16;4984007;28;20062;-78
2022/12/19 08:36:05;;;;;;;41.08;20.48;;;;;;;4.22;100.00;101365.69;4995969;28;20061;-78
2022/12/19 08:38:31;;;;;;;46.50;21.80;;;;;;;4.38;100.00;101373.53;4984030;28;20041;-79
2022/12/19 08:40:57;;;;;;;41.70;20.95;;;;;;;4.39;100.00;101369.63;4982461;28;20046;-78
2022/12/19 08:43:22;;;;;;;43.05;22.63;;;;;;;4.32;100.00;101353.44;4980298;28;20528;-78
2022/12/19 08:45:48;;;;;;;41.00;19.98;;;;;;;4.42;100.00;101358.69;4983099;28;20066;-78
2022/12/19 08:48:16;;;;;;;47.42;22.15;;;;;;;4.40;100.00;101365.69;4981776;28;20081;-78
2022/12/19 08:50:56;;;;;;;41.83;21.05;;;;;;;4.63;100.00;101371.91;4977987;28;20034;-77
2022/12/19 08:53:23;;;;;;;51.67;23.92;;;;;;;4.60;100.00;101370.63;4978722;28;20045;-78
2022/12/19 08:55:56;;;;;;;42.33;20.92;;;;;;;4.59;100.00;101362.63;4981582;28;20126;-78
2022/12/19 08:58:25;;;;;;;40.58;20.10;;;;;;;4.78;100.00;101359.53;4985657;28;20045;-79
2022/12/19 09:00:54;;;;;;;43.28;21.95;;;;;;;4.80;100.00;101365.56;4995863;28;20019;-78
2022/12/19 09:03:21;;;;;;;48.88;23.20;;;;;;;4.99;100.00;101366.03;4983142;28;20072;-77
2022/12/19 09:05:54;;;;;;;39.10;20.60;;;;;;;4.67;100.00;101362.63;4979398;28;20506;-78
2022/12/19 09:08:19;;;;;;;45.67;22.23;;;;;;;5.21;100.00;101358.69;4980652;28;20045;-78
2022/12/19 09:10:45;;;;;;;41.22;22.30;;;;;;;5.04;100.00;101362.28;4980782;28;20978;-79
2022/12/19 09:13:11;;;;;;;45.83;22.52;;;;;;;5.20;100.00;101366.16;4999548;28;20037;-79
2022/12/19 09:15:36;;;;;;;49.33;22.30;;;;;;;5.54;100.00;101358.09;4979122;28;20453;-78
2022/12/19 09:18:01;;;;;;;54.35;23.38;;;;;;;5.45;100.00;101372.81;4983108;28;20026;-77
2022/12/19 09:20:27;;;;;;;41.60;21.88;;;;;;;5.43;100.00;101352.88;4975222;28;20053;-78
2022/12/19 09:22:52;;;;;;;50.30;23.45;;;;;;;5.82;100.00;101358.44;4995714;28;20065;-79
2022/12/19 09:25:17;;;;;;;51.15;24.33;;;;;;;5.88;100.00;101362.66;4986398;28;20042;-79
2022/12/19 09:27:43;;;;;;;47.28;22.00;;;;;;;5.97;100.00;101371.03;4990929;28;20367;-79
2022/12/19 09:30:11;;;;;;;52.42;23.65;;;;;;;5.99;100.00;101372.31;4987150;28;20030;-78
2022/12/19 09:32:36;;;;;;;58.35;24.05;;;;;;;6.07;100.00;101371.47;4990967;28;20054;-78
2022/12/19 09:35:02;;;;;;;49.47;23.08;;;;;;;5.84;100.00;101368.09;4985204;28;20035;-79
2022/12/19 09:37:27;;;;;;;44.53;22.40;;;;;;;6.09;100.00;101365.53;4976489;28;20026;-79
2022/12/19 09:39:52;;;;;;;50.28;23.15;;;;;;;5.98;100.00;101379.00;4990606;28;20040;-79
2022/12/19 09:42:38;;;;;;;49.20;22.50;;;;;;;6.06;100.00;101383.72;4995159;28;20054;-79
2022/12/19 09:45:15;;;;;;;43.05;18.73;;;;;;;5.68;100.00;101384.50;4987136;28;20030;-79
2022/12/19 09:47:45;;;;;;;45.03;21.52;;;;;;;5.97;100.00;101366.28;4988972;28;20030;-79
2022/12/19 09:50:30;;;;;;;47.90;23.17;;;;;;;6.04;100.00;101382.41;4983002;28;20218;-79
2022/12/19 09:53:27;;;;;;;51.85;22.85;;;;;;;6.07;100.00;101373.41;4994664;28;20032;-80
2022/12/19 09:55:53;;;;;;;41.97;20.75;;;;;;;5.98;100.00;101378.19;4979111;28;20042;-79
2022/12/19 09:58:45;;;;;;;46.25;23.17;;;;;;;6.17;100.00;101386.91;4994499;28;20496;-79
2022/12/19 10:01:32;;;;;;;42.13;20.92;;;;;;;6.12;100.00;101389.09;4987349;28;20033;-79
2022/12/19 10:04:13;;;;;;;34.85;18.88;;;;;;;6.11;100.00;101388.25;5000228;28;20035;-79
2022/12/19 10:06:38;;;;;;;48.10;19.27;;;;;;;6.14;100.00;101381.22;4993254;28;20501;-79
2022/12/19 10:09:15;;;;;;;41.95;22.50;;;;;;;6.37;100.00;101381.75;4987519;28;20265;-79
2022/12/19 10:11:56;;;;;;;48.78;21.42;;;;;;;6.24;100.00;101381.66;4989587;28;20021;-79
2022/12/19 10:14:48;;;;;;;44.63;21.30;;;;;;;6.39;100.00;101382.19;4987908;28;20053;-79
2022/12/19 10:17:34;;;;;;;61.83;23.67;;;;;;;6.45;100.00;101372.50;4989463;28;20505;-80
2022/12/19 10:20:28;;;;;;;57.50;23.40;;;;;;;6.39;100.00;101379.41;4985509;28;20035;-80
2022/12/19 10:23:22;;;;;;;63.90;25.63;;;;;;;6.63;100.00;101382.38;4976248;28;20507;-80
2022/12/19 10:26:03;;;;;;;81.45;29.92;;;;;;;6.44;100.00;101384.81;4988160;28;20470;-79
2022/12/19 10:28:41;;;;;;;66.18;27.55;;;;;;;6.57;100.00;101367.03;4999779;28;20093;-80
2022/12/19 10:31:09;;;;;;;91.10;31.17;;;;;;;6.63;100.00;101376.81;4990399;28;20035;-80
2022/12/19 10:33:52;;;;;;;85.32;29.30;;;;;;;6.42;100.00;101375.97;4988888;28;20034;-80
2022/12/19 10:36:18;;;;;;;100.05;33.05;;;;;;;6.70;100.00;101371.53;4986299;28;20041;-80
2022/12/19 10:38:56;;;;;;;97.82;31.33;;;;;;;6.58;100.00;101378.97;4991305;28;20034;-80
2022/12/19 10:41:26;;;;;;;84.32;29.20;;;;;;;6.62;100.00;101366.00;4990046;28;20490;-81
2022/12/19 10:44:04;;;;;;;68.82;28.27;;;;;;;6.50;100.00;101372.34;4983192;28;20042;-80
2022/12/19 10:46:44;;;;;;;72.72;27.98;;;;;;;6.59;100.00;101373.06;4982648;28;20030;-80
2022/12/19 10:49:17;;;;;;;70.65;26.08;;;;;;;6.69;100.00;101367.09;4983823;28;20026;-81
2022/12/19 10:52:06;;;;;;;57.72;23.77;;;;;;;6.49;100.00;101379.03;4984783;28;20038;-80
2022/12/19 10:54:35;;;;;;;61.83;26.80;;;;;;;6.68;100.00;101378.56;4981216;28;20034;-79
2022/12/19 10:57:24;;;;;;;49.78;22.60;;;;;;;6.81;100.00;101371.09;4986692;28;20022;-80
2022/12/19 10:59:58;;;;;;;53.78;23.48;;;;;;;6.77;100.00;101375.72;4985554;28;20046;-80
2022/12/19 11:02:40;;;;;;;51.30;22.88;;;;;;;6.89;100.00;101378.56;4985131;28;20129;-80
2022/12/19 11:05:22;;;;;;;44.55;20.15;;;;;;;6.62;100.00;101363.22;4983213;28;20026;-80
2022/12/19 11:08:07;;;;;;;38.08;19.38;;;;;;;6.68;100.00;101373.84;5002237;28;20478;-80
2022/12/19 11:10:39;;;;;;;40.38;19.20;;;;;;;6.67;100.00;101379.72;4983875;28;20108;-80
2022/12/19 11:13:22;;;;;;;45.88;19.83;;;;;;;6.74;100.00;101374.44;4982616;28;20054;-81
2022/12/19 11:15:49;;;;;;;42.05;18.77;;;;;;;6.82;100.00;101372.75;4998195;28;20038;-80
2022/12/19 11:18:15;;;;;;;40.03;18.13;;;;;;;6.79;100.00;101371.47;4987768;28;20506;-79
2022/12/19 11:20:53;;;;;;;46.78;22.45;;;;;;;6.71;100.00;101375.94;4985449;28;20038;-79
2022/12/19 11:23:19;;;;;;;39.70;18.92;;;;;;;6.83;100.00;101360.44;4984151;28;20045;-79
2022/12/19 11:25:54;;;;;;;35.78;18.40;;;;;;;6.98;100.00;101362.63;4985373;28;20394;-80